Saspamco, Texas
Current Conditions -  °F | °C
As of 8:53 AM on Monday 22 Dec 2014 (Local Time) from KSSF Reporting Station
Overcast Overcast  
Wind Chill: 58°   Ceiling: 1300
Heat Index: 58°   Visibility: 10mi
Dew Point: 54°   Wind: 12mph
Humidity: 87%   Direction: 220°SW
Pressure: 29.76"   Gusts: NA
Location:  29.231°N, 98.3845°W
Report Text: KSSF 221453Z 22010KT 10SM OVC013 14/12 A2976 RMK AO2 SLP077 T01440122 50003
Loading
Personal Weather Stations






























Interactive Weather Map New forecast layout! Learn more

10-Day Weather Forecast

Advertisements
Track Severe Weather on mobile